KDUJ/DUJ METAR and TAF weather

Enter ICAO airport designator
Station Type Date Time Source
KDUJ METAR 2018/06/25 16:53 UTC NOAA

KDUJ 251653Z AUTO 34009KT 10SM FEW040 22/12 A3018 RMK AO2 SLP209 T02170122


Station Type Date Time Source
KDUJ Decoded METAR 2018/06/25 16:53 UTC NOAA

DU BOIS-JEFFERSON COUNTY, PA, United States (KDUJ) 41-11N 078-53W
Jun 25, 2018 - 12:53 PM EDT / 2018.06.25 1653 UTC
Wind: from the NNW (340 degrees) at 10 MPH (9 KT):0
Visibility: 10 mile(s):0
Sky conditions: mostly clear
Temperature: 71.1 F (21.7 C)
Dew Point: 54.0 F (12.2 C)
Relative Humidity: 54%
Pressure (altimeter): 30.18 in. Hg (1022 hPa)
ob: KDUJ 251653Z AUTO 34009KT 10SM FEW040 22/12 A3018 RMK AO2 SLP209 T02170122
cycle: 17

Station Type Date Time Source
KDUJ TAF 2018/06/25 18:21 UTC NOAA

TAF KDUJ 251721Z 2518/2618 34008KT P6SM SCT035
FM252200 34006KT P6SM SKC
FM261000 09005KT P6SM FEW250


Example: see airport list